Time;durP1;ratioP1;P1;durP2;ratioP2;P2;SDS_P1;SDS_P2;PMS_P1;PMS_P2;Temp;Humidity;BMP_temperature;BMP_pressure;BME280_temperature;BME280_humidity;BME280_pressure;Samples;Min_cycle;Max_cycle;Signal;HPM_P1;HPM_P2
2021/07/22 00:00:28;;;;;;;;;;;23.20;54.20;;;;;;500269;237;1053;-70
2021/07/22 00:02:29;;;;;;;;;;;23.20;54.10;;;;;;500273;237;1100;-70
2021/07/22 00:04:30;;;;;;;;;;;23.20;54.20;;;;;;500254;237;1051;-70
2021/07/22 00:06:31;;;;;;;;;;;23.20;54.10;;;;;;500229;236;1103;-70
2021/07/22 00:08:33;;;;;;;;;;;23.20;54.20;;;;;;500113;237;1106;-70
2021/07/22 00:10:34;;;;;;;;;;;23.20;54.00;;;;;;500347;237;2184;-70
2021/07/22 00:12:35;;;;;;;;;;;23.20;54.10;;;;;;500306;237;1127;-70
2021/07/22 00:14:37;;;;;;;;;;;23.20;54.10;;;;;;500293;237;1171;-70
2021/07/22 00:16:38;;;;;;;;;;;23.20;54.20;;;;;;500275;237;1203;-70
2021/07/22 00:18:39;;;;;;;;;;;23.20;54.10;;;;;;500314;237;1064;-71
2021/07/22 00:20:41;;;;;;;;;;;23.20;54.10;;;;;;500282;237;1030;-71
2021/07/22 00:22:42;;;;;;;;;;;23.20;54.20;;;;;;500272;237;1213;-70
2021/07/22 00:24:43;;;;;;;;;;;23.20;54.10;;;;;;500327;237;1050;-70
2021/07/22 00:26:45;;;;;;;;;;;23.20;54.10;;;;;;500326;237;1213;-70
2021/07/22 00:28:46;;;;;;;;;;;23.10;54.20;;;;;;500277;237;1126;-70
2021/07/22 00:30:47;;;;;;;;;;;23.10;54.10;;;;;;500326;237;2174;-70
2021/07/22 00:32:49;;;;;;;;;;;23.20;54.10;;;;;;500336;237;1025;-70
2021/07/22 00:34:50;;;;;;;;;;;23.30;53.90;;;;;;500337;237;1112;-70
2021/07/22 00:36:51;;;;;;;;;;;23.20;53.80;;;;;;500351;237;1239;-70
2021/07/22 00:38:53;;;;;;;;;;;23.20;53.90;;;;;;500318;237;1017;-71
2021/07/22 00:40:56;;;;;;;;;;;23.20;53.80;;;;;;500326;237;1170;-71
2021/07/22 00:42:55;;;;;;;;;;;23.10;54.10;;;;;;500214;238;1332;-70
2021/07/22 00:44:57;;;;;;;;;;;23.00;54.40;;;;;;500196;237;1151;-71
2021/07/22 00:46:58;;;;;;;;;;;23.00;54.50;;;;;;500215;237;1214;-71
2021/07/22 00:48:59;;;;;;;;;;;23.00;54.60;;;;;;500357;237;1034;-71
2021/07/22 00:51:01;;;;;;;;;;;23.00;54.50;;;;;;500363;237;2184;-71
2021/07/22 00:53:02;;;;;;;;;;;23.00;54.40;;;;;;500443;237;1033;-70
2021/07/22 00:55:03;;;;;;;;;;;23.00;54.60;;;;;;500351;237;1021;-70
2021/07/22 00:57:05;;;;;;;;;;;23.00;54.60;;;;;;500244;237;1221;-70
2021/07/22 00:59:06;;;;;;;;;;;22.90;54.60;;;;;;500191;237;1165;-71
2021/07/22 01:01:07;;;;;;;;;;;22.90;54.50;;;;;;500372;237;998;-70
2021/07/22 01:03:09;;;;;;;;;;;23.00;54.50;;;;;;500457;237;1079;-70
2021/07/22 01:05:10;;;;;;;;;;;23.00;54.60;;;;;;500372;237;1015;-71
2021/07/22 01:07:11;;;;;;;;;;;23.00;54.60;;;;;;500305;237;1199;-70
2021/07/22 01:09:13;;;;;;;;;;;23.00;54.50;;;;;;500292;237;1054;-70
2021/07/22 01:11:14;;;;;;;;;;;22.90;54.50;;;;;;500351;237;2116;-70
2021/07/22 01:13:15;;;;;;;;;;;23.00;54.60;;;;;;500398;237;1072;-71
2021/07/22 01:15:17;;;;;;;;;;;23.00;54.40;;;;;;500275;237;1209;-70
2021/07/22 01:17:18;;;;;;;;;;;23.00;54.50;;;;;;500221;237;1319;-70
2021/07/22 01:19:19;;;;;;;;;;;23.00;54.40;;;;;;500295;237;1043;-71
2021/07/22 01:21:22;;;;;;;;;;;23.00;54.30;;;;;;500248;237;1204;-70
2021/07/22 01:23:23;;;;;;;;;;;23.00;54.40;;;;;;500307;237;1299;-70
2021/07/22 01:25:24;;;;;;;;;;;23.00;54.50;;;;;;500329;237;980;-70
2021/07/22 01:27:25;;;;;;;;;;;23.00;54.40;;;;;;500279;237;1227;-70
2021/07/22 01:29:27;;;;;;;;;;;23.00;54.50;;;;;;500372;237;1094;-70
2021/07/22 01:31:28;;;;;;;;;;;23.00;54.40;;;;;;500292;237;2183;-70
2021/07/22 01:33:29;;;;;;;;;;;23.00;54.50;;;;;;500331;237;1124;-70
2021/07/22 01:35:31;;;;;;;;;;;23.00;54.40;;;;;;500331;237;978;-70
2021/07/22 01:37:32;;;;;;;;;;;23.00;54.50;;;;;;500312;237;1206;-70
2021/07/22 01:39:33;;;;;;;;;;;22.90;54.40;;;;;;500267;237;1047;-70
2021/07/22 01:41:37;;;;;;;;;;;22.90;54.50;;;;;;500152;237;1140;-70
2021/07/22 01:43:36;;;;;;;;;;;23.00;54.50;;;;;;500176;238;1404;-71
2021/07/22 01:45:37;;;;;;;;;;;22.90;54.40;;;;;;500331;237;1179;-70
2021/07/22 01:47:38;;;;;;;;;;;22.90;54.40;;;;;;500297;237;1244;-70
2021/07/22 01:49:40;;;;;;;;;;;22.90;54.40;;;;;;500334;237;2188;-71
2021/07/22 01:51:41;;;;;;;;;;;22.90;54.40;;;;;;500259;237;1166;-71
2021/07/22 01:53:43;;;;;;;;;;;22.90;54.50;;;;;;500348;237;1015;-71
2021/07/22 01:55:44;;;;;;;;;;;22.90;54.50;;;;;;500335;237;1072;-71
2021/07/22 01:57:47;;;;;;;;;;;22.80;54.50;;;;;;500303;237;1111;-70
2021/07/22 01:59:47;;;;;;;;;;;22.80;54.50;;;;;;500236;238;1401;-71
2021/07/22 02:01:48;;;;;;;;;;;22.80;54.50;;;;;;500140;237;1161;-71
2021/07/22 02:03:49;;;;;;;;;;;22.90;54.50;;;;;;500288;237;960;-71
2021/07/22 02:05:51;;;;;;;;;;;22.90;54.40;;;;;;500308;237;962;-70
2021/07/22 02:07:52;;;;;;;;;;;22.90;54.30;;;;;;500387;237;1073;-70
2021/07/22 02:09:53;;;;;;;;;;;22.80;54.40;;;;;;500349;237;2133;-70
2021/07/22 02:11:55;;;;;;;;;;;22.90;54.30;;;;;;500260;237;1237;-70
2021/07/22 02:13:56;;;;;;;;;;;22.90;54.30;;;;;;500306;237;1194;-70
2021/07/22 02:15:57;;;;;;;;;;;22.90;54.20;;;;;;500260;237;1193;-70
2021/07/22 02:17:59;;;;;;;;;;;22.90;54.20;;;;;;500345;237;1125;-70
2021/07/22 02:20:00;;;;;;;;;;;22.90;54.30;;;;;;500360;237;1052;-70
2021/07/22 02:22:01;;;;;;;;;;;22.90;54.30;;;;;;500247;237;1207;-70
2021/07/22 02:24:03;;;;;;;;;;;22.80;54.30;;;;;;500441;237;1029;-70
2021/07/22 02:26:04;;;;;;;;;;;22.90;54.20;;;;;;500299;237;1221;-71
2021/07/22 02:28:05;;;;;;;;;;;22.90;54.20;;;;;;500280;237;1136;-71
2021/07/22 02:30:07;;;;;;;;;;;22.90;54.10;;;;;;500260;237;2179;-71
2021/07/22 02:32:08;;;;;;;;;;;22.90;54.20;;;;;;500205;237;1035;-71
2021/07/22 02:34:09;;;;;;;;;;;23.00;54.10;;;;;;500325;237;1255;-70
2021/07/22 02:36:11;;;;;;;;;;;23.00;54.00;;;;;;500318;237;1239;-70
2021/07/22 02:38:12;;;;;;;;;;;22.90;53.90;;;;;;500317;237;1052;-70
2021/07/22 02:40:13;;;;;;;;;;;22.90;54.00;;;;;;500327;237;1144;-71
2021/07/22 02:42:15;;;;;;;;;;;22.90;54.00;;;;;;500194;237;1101;-71
2021/07/22 02:44:16;;;;;;;;;;;22.90;54.10;;;;;;500301;237;994;-71
2021/07/22 02:46:17;;;;;;;;;;;23.00;54.00;;;;;;500249;237;1158;-70
2021/07/22 02:48:19;;;;;;;;;;;22.90;53.90;;;;;;500339;237;1183;-70
2021/07/22 02:50:20;;;;;;;;;;;22.90;54.00;;;;;;500263;237;2148;-70
2021/07/22 02:52:21;;;;;;;;;;;22.80;54.10;;;;;;500185;237;1042;-71
2021/07/22 02:54:23;;;;;;;;;;;22.90;54.10;;;;;;500318;237;1032;-71
2021/07/22 02:56:25;;;;;;;;;;;22.90;54.10;;;;;;500331;237;1020;-70
2021/07/22 02:58:25;;;;;;;;;;;22.90;54.20;;;;;;500233;238;1293;-70
2021/07/22 03:00:27;;;;;;;;;;;22.90;54.20;;;;;;500185;237;1068;-71
2021/07/22 03:02:28;;;;;;;;;;;22.90;54.10;;;;;;500250;237;1207;-70
2021/07/22 03:04:30;;;;;;;;;;;22.90;54.20;;;;;;500357;237;994;-71
2021/07/22 03:06:31;;;;;;;;;;;22.80;54.10;;;;;;500258;237;1159;-70
2021/07/22 03:08:33;;;;;;;;;;;22.90;54.10;;;;;;500320;237;979;-70
2021/07/22 03:10:34;;;;;;;;;;;22.90;54.10;;;;;;500295;237;2184;-70
2021/07/22 03:12:35;;;;;;;;;;;23.00;54.00;;;;;;500246;237;1156;-70
2021/07/22 03:14:37;;;;;;;;;;;22.90;54.00;;;;;;500351;237;1017;-70
2021/07/22 03:16:38;;;;;;;;;;;22.90;54.10;;;;;;500121;237;1320;-70
2021/07/22 03:18:39;;;;;;;;;;;22.90;54.00;;;;;;500316;237;1064;-70
2021/07/22 03:20:40;;;;;;;;;;;22.90;54.00;;;;;;500320;237;1138;-70
2021/07/22 03:22:42;;;;;;;;;;;22.90;54.00;;;;;;500250;237;1118;-70
2021/07/22 03:24:43;;;;;;;;;;;22.90;53.90;;;;;;500351;237;1084;-70
2021/07/22 03:26:44;;;;;;;;;;;22.90;53.90;;;;;;500255;237;1166;-70
2021/07/22 03:28:46;;;;;;;;;;;22.90;54.00;;;;;;500315;237;1062;-70
2021/07/22 03:30:47;;;;;;;;;;;22.90;53.80;;;;;;500299;237;2125;-71
2021/07/22 03:32:48;;;;;;;;;;;22.90;53.80;;;;;;500227;237;1300;-70
2021/07/22 03:34:50;;;;;;;;;;;22.90;53.90;;;;;;500350;237;1017;-71
2021/07/22 03:36:51;;;;;;;;;;;22.90;53.90;;;;;;500304;237;1053;-71
2021/07/22 03:38:52;;;;;;;;;;;22.90;53.90;;;;;;500403;237;922;-71
2021/07/22 03:40:54;;;;;;;;;;;22.90;53.90;;;;;;500201;237;1161;-71
2021/07/22 03:42:55;;;;;;;;;;;22.90;53.80;;;;;;500212;237;1059;-71
2021/07/22 03:44:56;;;;;;;;;;;22.90;53.80;;;;;;500319;237;1090;-71
2021/07/22 03:46:58;;;;;;;;;;;22.90;53.80;;;;;;500168;237;1131;-71
2021/07/22 03:48:59;;;;;;;;;;;23.00;53.50;;;;;;500351;237;1127;-70
2021/07/22 03:51:00;;;;;;;;;;;23.00;53.40;;;;;;500266;237;2541;-70
2021/07/22 03:53:02;;;;;;;;;;;23.10;53.30;;;;;;500337;237;1113;-70
2021/07/22 03:55:03;;;;;;;;;;;23.10;53.20;;;;;;500361;237;1028;-71
2021/07/22 03:57:04;;;;;;;;;;;23.20;53.10;;;;;;500241;237;1033;-71
2021/07/22 03:59:06;;;;;;;;;;;23.20;53.00;;;;;;500449;237;1175;-71
2021/07/22 04:01:07;;;;;;;;;;;23.20;53.00;;;;;;500144;237;1071;-70
2021/07/22 04:03:08;;;;;;;;;;;23.20;53.10;;;;;;500180;237;1183;-70
2021/07/22 04:05:10;;;;;;;;;;;23.30;53.00;;;;;;500277;237;1046;-70
2021/07/22 04:07:11;;;;;;;;;;;23.30;53.00;;;;;;500270;237;1312;-70
2021/07/22 04:09:12;;;;;;;;;;;23.30;53.00;;;;;;500337;237;1032;-70
2021/07/22 04:11:14;;;;;;;;;;;23.30;53.00;;;;;;500131;237;2183;-70
2021/07/22 04:13:15;;;;;;;;;;;23.30;53.00;;;;;;500329;237;1204;-70
2021/07/22 04:15:16;;;;;;;;;;;23.30;52.90;;;;;;500281;237;1016;-70
2021/07/22 04:17:18;;;;;;;;;;;23.20;53.20;;;;;;500082;234;1291;-70
2021/07/22 04:19:19;;;;;;;;;;;23.00;53.60;;;;;;500214;237;1037;-70
2021/07/22 04:21:20;;;;;;;;;;;23.00;53.80;;;;;;500280;237;1129;-70
2021/07/22 04:23:22;;;;;;;;;;;22.90;54.00;;;;;;500254;237;1128;-70
2021/07/22 04:25:23;;;;;;;;;;;22.80;54.10;;;;;;500314;237;1037;-70
2021/07/22 04:27:27;;;;;;;;;;;22.90;54.20;;;;;;500257;237;1188;-70
2021/07/22 04:29:26;;;;;;;;;;;22.80;54.20;;;;;;500150;238;1392;-70
2021/07/22 04:31:27;;;;;;;;;;;22.80;54.30;;;;;;500149;237;2184;-70
2021/07/22 04:33:29;;;;;;;;;;;22.80;54.40;;;;;;500229;237;1122;-70
2021/07/22 04:35:30;;;;;;;;;;;22.90;54.20;;;;;;500309;237;1080;-70
2021/07/22 04:37:31;;;;;;;;;;;22.90;54.30;;;;;;500198;237;1039;-70
2021/07/22 04:39:33;;;;;;;;;;;22.90;54.30;;;;;;500242;237;1046;-70
2021/07/22 04:41:36;;;;;;;;;;;22.80;54.30;;;;;;500029;237;1094;-70
2021/07/22 04:43:36;;;;;;;;;;;22.90;54.30;;;;;;500067;238;1476;-70
2021/07/22 04:45:37;;;;;;;;;;;22.80;54.60;;;;;;500079;237;1145;-70
2021/07/22 04:47:39;;;;;;;;;;;22.70;55.10;;;;;;499901;237;1162;-70
2021/07/22 04:49:40;;;;;;;;;;;22.70;56.00;;;;;;500155;237;1061;-70
2021/07/22 04:51:41;;;;;;;;;;;22.60;56.70;;;;;;500088;237;2180;-70
2021/07/22 04:53:42;;;;;;;;;;;22.60;57.50;;;;;;500044;237;1163;-70
2021/07/22 04:55:44;;;;;;;;;;;22.60;58.00;;;;;;500154;237;1059;-70
2021/07/22 04:57:45;;;;;;;;;;;22.60;58.50;;;;;;500129;237;1223;-70
2021/07/22 04:59:48;;;;;;;;;;;22.60;58.70;;;;;;500111;237;1036;-70
2021/07/22 05:01:49;;;;;;;;;;;22.60;58.90;;;;;;499942;237;1349;-71
2021/07/22 05:03:50;;;;;;;;;;;22.60;59.20;;;;;;500024;237;1155;-71
2021/07/22 05:05:52;;;;;;;;;;;22.60;59.50;;;;;;500054;237;1036;-71
2021/07/22 05:07:53;;;;;;;;;;;22.60;59.70;;;;;;500004;237;1143;-71
2021/07/22 05:09:55;;;;;;;;;;;22.50;59.80;;;;;;500116;237;978;-70
2021/07/22 05:11:56;;;;;;;;;;;22.50;60.00;;;;;;500015;237;2171;-71
2021/07/22 05:13:57;;;;;;;;;;;22.50;59.90;;;;;;500177;237;1235;-71
2021/07/22 05:15:59;;;;;;;;;;;22.50;60.00;;;;;;499978;237;1041;-71
2021/07/22 05:18:00;;;;;;;;;;;22.50;59.90;;;;;;499994;237;1232;-70
2021/07/22 05:20:01;;;;;;;;;;;22.60;59.90;;;;;;500096;237;1139;-70
2021/07/22 05:22:03;;;;;;;;;;;22.60;59.70;;;;;;500147;237;1170;-70
2021/07/22 05:24:04;;;;;;;;;;;22.60;59.50;;;;;;500021;237;1191;-70
2021/07/22 05:26:07;;;;;;;;;;;22.60;59.40;;;;;;500038;237;1079;-70
2021/07/22 05:28:06;;;;;;;;;;;22.60;59.20;;;;;;499884;238;1438;-70
2021/07/22 05:30:08;;;;;;;;;;;22.60;58.80;;;;;;499987;237;1023;-70
2021/07/22 05:32:09;;;;;;;;;;;22.60;58.70;;;;;;499860;237;2175;-70
2021/07/22 05:34:10;;;;;;;;;;;22.60;58.60;;;;;;499962;237;1127;-70
2021/07/22 05:36:12;;;;;;;;;;;22.60;58.40;;;;;;499987;237;1289;-71
2021/07/22 05:38:13;;;;;;;;;;;22.60;58.40;;;;;;500012;237;1027;-70
2021/07/22 05:40:15;;;;;;;;;;;22.70;58.10;;;;;;500050;237;1051;-70
2021/07/22 05:42:16;;;;;;;;;;;22.60;58.00;;;;;;499950;237;1295;-71
2021/07/22 05:44:17;;;;;;;;;;;22.60;58.00;;;;;;500032;237;1099;-71
2021/07/22 05:46:19;;;;;;;;;;;22.60;57.90;;;;;;499830;237;1227;-70
2021/07/22 05:48:21;;;;;;;;;;;22.70;57.60;;;;;;499859;237;1148;-70
2021/07/22 05:50:22;;;;;;;;;;;22.70;57.60;;;;;;500007;237;1014;-71
2021/07/22 05:52:24;;;;;;;;;;;22.60;57.70;;;;;;499988;237;2176;-71
2021/07/22 05:54:25;;;;;;;;;;;22.60;57.70;;;;;;500021;237;1071;-71
2021/07/22 05:56:27;;;;;;;;;;;22.60;57.50;;;;;;499822;237;1096;-70
2021/07/22 05:58:28;;;;;;;;;;;22.60;57.50;;;;;;499897;237;1079;-71
2021/07/22 06:00:29;;;;;;;;;;;22.60;57.50;;;;;;499751;237;1183;-71
2021/07/22 06:02:30;;;;;;;;;;;22.70;57.50;;;;;;499610;237;1069;-71
2021/07/22 06:04:32;;;;;;;;;;;22.70;57.40;;;;;;499697;237;1198;-71
2021/07/22 06:06:33;;;;;;;;;;;22.60;57.50;;;;;;499696;237;1107;-71
2021/07/22 06:08:35;;;;;;;;;;;22.60;57.30;;;;;;499595;237;1203;-70
2021/07/22 06:10:36;;;;;;;;;;;22.70;57.30;;;;;;499758;237;1099;-71
2021/07/22 06:12:37;;;;;;;;;;;22.70;57.20;;;;;;499683;237;2195;-71
2021/07/22 06:14:39;;;;;;;;;;;22.60;57.30;;;;;;499876;237;1074;-71
2021/07/22 06:16:40;;;;;;;;;;;22.60;57.30;;;;;;499705;237;1122;-71
2021/07/22 06:18:42;;;;;;;;;;;22.60;57.20;;;;;;499756;237;1206;-71
2021/07/22 06:20:43;;;;;;;;;;;22.70;57.10;;;;;;499650;237;1032;-71
2021/07/22 06:22:45;;;;;;;;;;;22.70;57.10;;;;;;499745;237;1167;-71
2021/07/22 06:24:46;;;;;;;;;;;22.70;57.20;;;;;;499838;237;1091;-71
2021/07/22 06:26:47;;;;;;;;;;;22.60;57.20;;;;;;499616;237;1092;-71
2021/07/22 06:28:49;;;;;;;;;;;22.60;57.10;;;;;;499752;237;1039;-71
2021/07/22 06:30:50;;;;;;;;;;;22.70;57.20;;;;;;499692;237;1029;-71
2021/07/22 06:32:51;;;;;;;;;;;22.70;57.00;;;;;;499657;237;2184;-71
2021/07/22 06:34:52;;;;;;;;;;;22.70;56.90;;;;;;499683;237;1174;-71
2021/07/22 06:36:54;;;;;;;;;;;22.80;56.80;;;;;;499595;237;1088;-71
2021/07/22 06:38:55;;;;;;;;;;;22.70;57.00;;;;;;499649;237;1096;-70
2021/07/22 06:40:56;;;;;;;;;;;22.70;57.10;;;;;;499736;237;1088;-70
2021/07/22 06:42:58;;;;;;;;;;;22.70;57.10;;;;;;499519;238;1318;-70
2021/07/22 06:44:59;;;;;;;;;;;22.70;56.90;;;;;;499657;237;1102;-71
2021/07/22 06:47:01;;;;;;;;;;;22.70;57.10;;;;;;499657;237;1185;-70
2021/07/22 06:49:02;;;;;;;;;;;22.70;56.90;;;;;;499647;237;1180;-71
2021/07/22 06:51:03;;;;;;;;;;;22.70;57.20;;;;;;499678;237;1435;-70
2021/07/22 06:53:04;;;;;;;;;;;22.70;57.20;;;;;;499649;237;2183;-70
2021/07/22 06:55:06;;;;;;;;;;;22.70;57.10;;;;;;499520;237;1059;-70
2021/07/22 06:57:07;;;;;;;;;;;22.70;57.00;;;;;;499595;237;1199;-70
2021/07/22 06:59:09;;;;;;;;;;;22.70;57.00;;;;;;499478;237;1153;-71
2021/07/22 07:01:10;;;;;;;;;;;22.70;57.10;;;;;;499156;237;1133;-71
2021/07/22 07:03:11;;;;;;;;;;;22.70;57.10;;;;;;499287;237;1117;-70
2021/07/22 07:05:13;;;;;;;;;;;22.60;57.20;;;;;;499444;237;1076;-70
2021/07/22 07:07:15;;;;;;;;;;;22.60;57.20;;;;;;499571;237;1220;-70
2021/07/22 07:09:16;;;;;;;;;;;22.60;57.30;;;;;;499570;237;1038;-71
2021/07/22 07:11:18;;;;;;;;;;;22.60;57.20;;;;;;499536;237;1197;-70
2021/07/22 07:13:19;;;;;;;;;;;22.70;57.10;;;;;;499509;237;2171;-71
2021/07/22 07:15:20;;;;;;;;;;;22.70;57.20;;;;;;499258;237;1093;-71
2021/07/22 07:17:22;;;;;;;;;;;22.70;57.20;;;;;;499388;237;1349;-71
2021/07/22 07:19:23;;;;;;;;;;;22.70;57.30;;;;;;499137;237;1211;-71
2021/07/22 07:21:24;;;;;;;;;;;22.70;57.10;;;;;;499049;237;1187;-71
2021/07/22 07:23:26;;;;;;;;;;;22.70;57.20;;;;;;499592;238;1099;-70
2021/07/22 07:25:27;;;;;;;;;;;22.70;57.30;;;;;;499319;237;1421;-70
2021/07/22 07:27:28;;;;;;;;;;;22.60;57.20;;;;;;499291;237;1101;-70
2021/07/22 07:29:29;;;;;;;;;;;22.70;57.30;;;;;;499434;237;1096;-71
2021/07/22 07:31:31;;;;;;;;;;;22.70;57.40;;;;;;499348;237;1213;-71
2021/07/22 07:33:32;;;;;;;;;;;22.70;57.40;;;;;;499366;237;2183;-71
2021/07/22 07:35:34;;;;;;;;;;;22.70;57.40;;;;;;499326;237;1272;-71
2021/07/22 07:37:35;;;;;;;;;;;22.70;57.40;;;;;;499345;237;1045;-71
2021/07/22 07:39:37;;;;;;;;;;;22.70;57.30;;;;;;499384;237;1135;-71
2021/07/22 07:41:38;;;;;;;;;;;22.70;57.30;;;;;;498840;237;1208;-71
2021/07/22 07:43:39;;;;;;;;;;;22.70;57.20;;;;;;499104;237;1306;-71
2021/07/22 07:45:41;;;;;;;;;;;22.70;57.20;;;;;;499397;237;1333;-70
2021/07/22 07:47:42;;;;;;;;;;;22.80;57.20;;;;;;499380;237;1163;-70
2021/07/22 07:49:43;;;;;;;;;;;22.80;57.30;;;;;;499243;237;1221;-70
2021/07/22 07:51:45;;;;;;;;;;;22.80;57.30;;;;;;499202;237;2148;-70
2021/07/22 07:53:46;;;;;;;;;;;22.80;57.40;;;;;;499322;237;1119;-71
2021/07/22 07:55:47;;;;;;;;;;;22.80;57.30;;;;;;499359;237;1196;-70
2021/07/22 07:57:49;;;;;;;;;;;22.80;57.30;;;;;;499348;237;1217;-71
2021/07/22 07:59:50;;;;;;;;;;;22.80;57.40;;;;;;499393;237;1105;-71
2021/07/22 08:01:51;;;;;;;;;;;22.70;57.60;;;;;;499183;237;1342;-71
2021/07/22 08:03:52;;;;;;;;;;;22.80;57.70;;;;;;499245;237;1156;-71
2021/07/22 08:05:54;;;;;;;;;;;22.80;57.50;;;;;;499383;237;1089;-71
2021/07/22 08:07:55;;;;;;;;;;;22.80;57.60;;;;;;499367;237;1104;-70
2021/07/22 08:09:56;;;;;;;;;;;22.80;57.70;;;;;;499349;237;1321;-71
2021/07/22 08:11:59;;;;;;;;;;;22.80;57.60;;;;;;499119;237;2199;-71
2021/07/22 08:14:00;;;;;;;;;;;22.80;57.60;;;;;;499246;237;1108;-71
2021/07/22 08:16:01;;;;;;;;;;;22.80;57.50;;;;;;499261;237;1090;-70
2021/07/22 08:18:02;;;;;;;;;;;22.80;57.70;;;;;;499307;237;1058;-70
2021/07/22 08:20:06;;;;;;;;;;;22.80;57.60;;;;;;499252;237;1125;-71
2021/07/22 08:22:05;;;;;;;;;;;22.80;57.60;;;;;;499420;238;1285;-71
2021/07/22 08:24:06;;;;;;;;;;;22.80;57.60;;;;;;500304;237;935;-71
2021/07/22 08:26:09;;;;;;;;;;;22.80;57.70;;;;;;499334;237;1314;-70
2021/07/22 08:28:10;;;;;;;;;;;22.80;57.70;;;;;;499613;238;1338;-71
2021/07/22 08:30:11;;;;;;;;;;;22.80;57.50;;;;;;499194;238;1354;-70
2021/07/22 08:32:12;;;;;;;;;;;22.90;57.50;;;;;;499104;237;2176;-71
2021/07/22 08:34:15;;;;;;;;;;;22.80;57.60;;;;;;499186;237;1151;-71
2021/07/22 08:36:14;;;;;;;;;;;22.80;57.50;;;;;;499018;238;1413;-71
2021/07/22 08:38:16;;;;;;;;;;;22.80;57.60;;;;;;499493;237;1138;-70
2021/07/22 08:40:17;;;;;;;;;;;22.80;57.60;;;;;;499591;237;878;-71
2021/07/22 08:42:18;;;;;;;;;;;22.80;57.60;;;;;;499852;237;1086;-70
2021/07/22 08:44:20;;;;;;;;;;;22.80;57.60;;;;;;499980;237;936;-70
2021/07/22 08:46:21;;;;;;;;;;;22.90;57.70;;;;;;500034;236;1264;-70
2021/07/22 08:48:22;;;;;;;;;;;22.80;57.70;;;;;;500059;237;1033;-71
2021/07/22 08:50:24;;;;;;;;;;;22.80;57.60;;;;;;499484;237;1129;-71
2021/07/22 08:52:25;;;;;;;;;;;22.80;57.60;;;;;;499416;237;2187;-71
2021/07/22 08:54:26;;;;;;;;;;;22.80;57.70;;;;;;499927;237;1489;-71
2021/07/22 08:56:27;;;;;;;;;;;22.80;57.70;;;;;;500076;237;878;-71
2021/07/22 08:58:29;;;;;;;;;;;22.80;57.70;;;;;;500131;237;994;-71
2021/07/22 09:00:30;;;;;;;;;;;22.80;57.70;;;;;;499640;237;1193;-71
2021/07/22 09:02:31;;;;;;;;;;;22.80;57.70;;;;;;499888;237;1166;-70
2021/07/22 09:04:33;;;;;;;;;;;22.90;57.50;;;;;;499058;237;1163;-71
2021/07/22 09:06:34;;;;;;;;;;;22.90;57.50;;;;;;499658;237;1284;-71
2021/07/22 09:08:35;;;;;;;;;;;22.90;57.40;;;;;;500018;237;1157;-70
2021/07/22 09:10:37;;;;;;;;;;;23.00;57.30;;;;;;499142;237;1215;-70
2021/07/22 09:12:38;;;;;;;;;;;23.00;57.40;;;;;;499073;237;2195;-70
2021/07/22 09:14:39;;;;;;;;;;;23.00;57.30;;;;;;499117;237;1072;-70
2021/07/22 09:16:41;;;;;;;;;;;22.90;57.40;;;;;;498943;237;1388;-71
2021/07/22 09:18:42;;;;;;;;;;;23.00;57.30;;;;;;498777;237;1087;-71
2021/07/22 09:20:43;;;;;;;;;;;23.00;57.40;;;;;;498841;237;1321;-71
2021/07/22 09:22:45;;;;;;;;;;;23.00;57.40;;;;;;498858;237;1399;-71
2021/07/22 09:24:46;;;;;;;;;;;23.00;57.30;;;;;;498999;237;1049;-71
2021/07/22 09:26:50;;;;;;;;;;;23.10;57.30;;;;;;498992;237;1291;-71
2021/07/22 09:28:49;;;;;;;;;;;23.10;57.20;;;;;;498610;238;1237;-71
2021/07/22 09:30:50;;;;;;;;;;;23.10;57.30;;;;;;498992;237;1196;-71
2021/07/22 09:32:52;;;;;;;;;;;23.10;57.20;;;;;;498950;237;2179;-71
2021/07/22 09:34:53;;;;;;;;;;;23.10;57.30;;;;;;499086;237;1175;-70
2021/07/22 09:36:54;;;;;;;;;;;23.10;57.20;;;;;;499007;237;1089;-70
2021/07/22 09:38:56;;;;;;;;;;;23.10;57.30;;;;;;499271;237;1104;-71
2021/07/22 09:40:57;;;;;;;;;;;23.10;57.20;;;;;;499294;237;1095;-71
2021/07/22 09:42:58;;;;;;;;;;;23.10;57.10;;;;;;499295;237;1096;-71
2021/07/22 09:45:00;;;;;;;;;;;23.10;57.20;;;;;;499213;237;1080;-71
2021/07/22 09:47:01;;;;;;;;;;;23.20;57.10;;;;;;499292;237;1210;-71
2021/07/22 09:49:02;;;;;;;;;;;23.20;57.10;;;;;;499085;237;1075;-71
2021/07/22 09:51:03;;;;;;;;;;;23.10;57.10;;;;;;499152;237;1175;-71
2021/07/22 09:53:05;;;;;;;;;;;23.10;57.30;;;;;;499091;237;2180;-71
2021/07/22 09:55:06;;;;;;;;;;;23.00;57.40;;;;;;499108;237;1093;-71
2021/07/22 09:57:08;;;;;;;;;;;23.00;57.30;;;;;;498821;237;1056;-71
2021/07/22 09:59:09;;;;;;;;;;;23.10;57.40;;;;;;498903;237;1056;-71
2021/07/22 10:01:10;;;;;;;;;;;23.10;57.10;;;;;;498880;237;1561;-71
2021/07/22 10:03:12;;;;;;;;;;;23.20;56.90;;;;;;499061;237;1104;-71
2021/07/22 10:05:13;;;;;;;;;;;23.10;56.90;;;;;;498802;237;1198;-71
2021/07/22 10:07:14;;;;;;;;;;;23.10;57.10;;;;;;498917;237;1207;-71
2021/07/22 10:09:16;;;;;;;;;;;23.10;57.20;;;;;;498944;237;1052;-71
2021/07/22 10:11:17;;;;;;;;;;;23.10;57.10;;;;;;499223;237;1655;-71
2021/07/22 10:13:18;;;;;;;;;;;23.00;57.10;;;;;;499251;237;2195;-71
2021/07/22 10:15:20;;;;;;;;;;;23.10;57.20;;;;;;499122;237;1064;-71
2021/07/22 10:17:21;;;;;;;;;;;23.00;57.00;;;;;;498964;237;1077;-71
2021/07/22 10:19:22;;;;;;;;;;;23.00;57.00;;;;;;498980;237;1061;-71
2021/07/22 10:21:24;;;;;;;;;;;23.00;57.10;;;;;;499093;237;1620;-71
2021/07/22 10:23:25;;;;;;;;;;;23.00;57.00;;;;;;499149;237;1379;-71
2021/07/22 10:25:27;;;;;;;;;;;23.00;56.90;;;;;;499225;237;1053;-71
2021/07/22 10:27:28;;;;;;;;;;;23.00;57.00;;;;;;498985;237;1100;-71
2021/07/22 10:29:29;;;;;;;;;;;23.00;57.00;;;;;;499000;237;1299;-71
2021/07/22 10:31:30;;;;;;;;;;;23.00;57.00;;;;;;499251;237;1055;-71
2021/07/22 10:33:34;;;;;;;;;;;23.00;57.00;;;;;;499258;237;2195;-71
2021/07/22 10:35:34;;;;;;;;;;;23.00;57.00;;;;;;499289;238;1369;-71
2021/07/22 10:37:35;;;;;;;;;;;23.10;56.70;;;;;;499291;237;1162;-70
2021/07/22 10:39:36;;;;;;;;;;;23.00;56.80;;;;;;499135;237;1162;-70
2021/07/22 10:41:39;;;;;;;;;;;23.00;57.00;;;;;;498856;237;1344;-70
2021/07/22 10:43:40;;;;;;;;;;;22.90;57.00;;;;;;499006;238;1355;-70
2021/07/22 10:45:40;;;;;;;;;;;23.00;57.00;;;;;;499069;237;1474;-70
2021/07/22 10:47:42;;;;;;;;;;;23.00;57.00;;;;;;499173;237;1125;-71
2021/07/22 10:49:43;;;;;;;;;;;23.10;56.80;;;;;;499134;237;1141;-71
2021/07/22 10:51:45;;;;;;;;;;;23.00;56.80;;;;;;499144;237;1261;-70
2021/07/22 10:53:47;;;;;;;;;;;23.00;56.80;;;;;;499654;237;2183;-71
2021/07/22 10:55:49;;;;;;;;;;;23.00;56.80;;;;;;500197;237;1207;-71
2021/07/22 10:57:50;;;;;;;;;;;23.00;56.80;;;;;;499758;237;1374;-71
2021/07/22 10:59:51;;;;;;;;;;;23.00;56.90;;;;;;500242;237;882;-71
2021/07/22 11:01:53;;;;;;;;;;;23.00;56.70;;;;;;499632;237;817;-71
2021/07/22 11:03:54;;;;;;;;;;;23.00;56.80;;;;;;499879;237;1342;-71
2021/07/22 11:05:55;;;;;;;;;;;23.00;56.90;;;;;;499325;237;1131;-71
2021/07/22 11:07:56;;;;;;;;;;;22.90;57.00;;;;;;499552;237;831;-71
2021/07/22 11:10:00;;;;;;;;;;;23.00;57.00;;;;;;500264;237;944;-71
2021/07/22 11:12:02;;;;;;;;;;;23.10;56.80;;;;;;499429;237;1097;-71
2021/07/22 11:14:03;;;;;;;;;;;23.10;56.70;;;;;;499281;237;2192;-71
2021/07/22 11:16:04;;;;;;;;;;;23.10;56.60;;;;;;499783;237;796;-71
2021/07/22 11:18:06;;;;;;;;;;;23.20;56.60;;;;;;499606;237;783;-71
2021/07/22 11:20:07;;;;;;;;;;;23.10;56.70;;;;;;499654;237;834;-71
2021/07/22 11:22:10;;;;;;;;;;;23.10;56.60;;;;;;499979;237;1093;-71
2021/07/22 11:24:15;;;;;;;;;;;23.00;56.80;;;;;;500193;238;1305;-71
2021/07/22 11:26:11;;;;;;;;;;;23.00;56.90;;;;;;499038;238;1313;-71
2021/07/22 11:28:12;;;;;;;;;;;23.00;57.00;;;;;;499969;237;1077;-71
2021/07/22 11:30:14;;;;;;;;;;;23.00;56.90;;;;;;499201;237;1251;-71
2021/07/22 11:32:15;;;;;;;;;;;23.00;56.90;;;;;;499050;237;1069;-71
2021/07/22 11:34:16;;;;;;;;;;;23.00;56.80;;;;;;499147;237;2176;-71
2021/07/22 11:36:18;;;;;;;;;;;23.00;56.70;;;;;;499208;237;1221;-71
2021/07/22 11:38:19;;;;;;;;;;;23.00;56.80;;;;;;499300;237;1222;-71
2021/07/22 11:40:20;;;;;;;;;;;22.90;56.70;;;;;;499286;237;1118;-71
2021/07/22 11:42:21;;;;;;;;;;;22.90;56.70;;;;;;499274;237;1265;-71
2021/07/22 11:44:23;;;;;;;;;;;22.90;56.80;;;;;;499247;237;1045;-70
2021/07/22 11:46:24;;;;;;;;;;;22.90;56.80;;;;;;499081;237;1357;-70
2021/07/22 11:48:25;;;;;;;;;;;22.90;56.70;;;;;;499078;237;1085;-71
2021/07/22 11:50:27;;;;;;;;;;;22.90;56.70;;;;;;499117;237;1115;-71
2021/07/22 11:52:28;;;;;;;;;;;22.90;56.70;;;;;;499201;237;1515;-71
2021/07/22 11:54:29;;;;;;;;;;;22.90;56.70;;;;;;499169;237;2125;-71
2021/07/22 11:56:31;;;;;;;;;;;22.90;56.60;;;;;;499233;237;1190;-71